Turtleford, Canada
Current Conditions -  °F | °C
As of 9:22 PM on Saturday 20 Dec 2014 (Local Time) from CYLL Reporting Station
Moderate Fog Moderate Fog  
Wind Chill:   Ceiling: 200
Heat Index: 19°   Visibility: 0.25mi
Dew Point: 18°   Wind: 9mph
Humidity: 93%   Direction: 140°SE
Pressure: 29.54"   Gusts: NA
Location:  53.38°N, 108.97°W
Report Text: CYLL 210322Z 14008KT 1/4SM FZFG VV002 M07/M08 A2954 RMK FG8 SLP047
Loading
Personal Weather Stations






























Interactive Weather Map New forecast layout! Learn more

10-Day Weather Forecast

Advertisements
Track Severe Weather on mobile